createdAt,value
2024-03-07T00:00:32.208Z,52.81
2024-03-07T00:01:32.320Z,52.73
2024-03-07T00:02:32.442Z,52.34
2024-03-07T00:03:32.507Z,55.39
2024-03-07T00:04:32.571Z,54.25
2024-03-07T00:05:32.656Z,53.93
2024-03-07T00:06:32.688Z,53.35
2024-03-07T00:07:32.801Z,53.08
2024-03-07T00:08:32.930Z,52.84
2024-03-07T00:09:32.954Z,52.60
2024-03-07T00:10:32.985Z,51.76
2024-03-07T00:11:33.194Z,53.92
2024-03-07T00:12:33.205Z,53.52
2024-03-07T00:13:33.284Z,53.96
2024-03-07T00:14:33.393Z,50.40
2024-03-07T00:15:33.427Z,50.22
2024-03-07T00:16:33.510Z,50.43
2024-03-07T00:17:33.610Z,51.85
2024-03-07T00:18:33.711Z,50.30
2024-03-07T00:19:33.731Z,50.00
2024-03-07T00:20:33.896Z,51.59
2024-03-07T00:21:33.894Z,53.34
2024-03-07T00:22:34.011Z,50.40
2024-03-07T00:23:34.146Z,50.66
2024-03-07T00:24:34.177Z,52.23
2024-03-07T00:25:34.248Z,52.97
2024-03-07T00:26:34.349Z,52.23
2024-03-07T00:27:34.433Z,52.50
2024-03-07T00:28:34.511Z,52.83
2024-03-07T00:29:34.612Z,54.21
2024-03-07T00:30:34.652Z,54.65
2024-03-07T00:31:34.782Z,55.00
2024-03-07T00:32:34.921Z,54.38
2024-03-07T00:33:51.164Z,56.08
2024-03-07T00:34:35.998Z,56.20
2024-03-07T00:35:35.008Z,56.68
2024-03-07T00:36:35.020Z,57.10
2024-03-07T00:37:35.008Z,57.24
2024-03-07T00:38:35.035Z,59.20
2024-03-07T00:39:34.988Z,59.28
2024-03-07T00:40:34.988Z,58.98
2024-03-07T00:41:35.045Z,58.98
2024-03-07T00:42:35.133Z,60.78
2024-03-07T00:43:35.183Z,60.50
2024-03-07T00:44:35.247Z,59.63
2024-03-07T00:45:35.363Z,59.49
2024-03-07T00:46:35.475Z,61.90
2024-03-07T00:47:35.675Z,60.76
2024-03-07T00:48:35.661Z,59.52
2024-03-07T00:49:35.767Z,59.33
2024-03-07T00:50:35.952Z,60.66
2024-03-07T00:52:36.077Z,60.74
2024-03-07T00:53:36.238Z,61.65
2024-03-07T00:54:36.270Z,59.91
2024-03-07T00:55:36.374Z,60.85
2024-03-07T00:56:36.499Z,60.38
2024-03-07T00:57:36.566Z,61.14
2024-03-07T00:58:36.661Z,61.64
2024-03-07T00:59:36.791Z,62.13
2024-03-07T01:00:36.867Z,60.83
2024-03-07T01:01:36.952Z,61.76
2024-03-07T01:02:37.063Z,61.16
2024-03-07T01:03:37.124Z,61.13
2024-03-07T01:04:37.215Z,60.70
2024-03-07T01:05:37.342Z,61.03
2024-03-07T01:06:37.398Z,62.00
2024-03-07T01:07:37.493Z,62.50
2024-03-07T01:08:37.614Z,62.55
2024-03-07T01:09:37.653Z,61.51
2024-03-07T01:10:37.757Z,60.99
2024-03-07T01:11:37.929Z,61.99
2024-03-07T01:12:37.883Z,61.58
2024-03-07T01:13:38.065Z,61.94
2024-03-07T01:14:38.106Z,62.68
2024-03-07T01:15:38.186Z,62.68
2024-03-07T01:16:38.244Z,61.15
2024-03-07T01:17:38.453Z,61.81
2024-03-07T01:18:38.496Z,62.65
2024-03-07T01:19:38.521Z,61.60
2024-03-07T01:20:38.663Z,61.79
2024-03-07T01:21:39.255Z,61.20
2024-03-07T01:22:38.737Z,61.87
2024-03-07T01:23:38.767Z,63.68
2024-03-07T01:24:38.756Z,61.87
2024-03-07T01:25:38.821Z,61.37
2024-03-07T01:26:38.871Z,61.27
2024-03-07T01:27:38.898Z,61.61
2024-03-07T01:28:38.970Z,62.28
2024-03-07T01:29:38.998Z,62.82
2024-03-07T01:30:38.972Z,62.19
2024-03-07T01:31:39.028Z,61.90
2024-03-07T01:32:39.134Z,60.15
2024-03-07T01:33:39.177Z,59.81
2024-03-07T01:34:39.162Z,60.98
2024-03-07T01:35:39.212Z,61.60
2024-03-07T01:36:39.320Z,60.07
2024-03-07T01:37:39.270Z,61.54
2024-03-07T01:38:39.372Z,61.16
2024-03-07T01:39:39.373Z,62.11
2024-03-07T01:40:39.392Z,61.83
2024-03-07T01:41:39.498Z,61.24
2024-03-07T01:42:39.520Z,61.73
2024-03-07T01:43:39.587Z,59.54
2024-03-07T01:44:40.565Z,60.55
2024-03-07T01:45:39.640Z,61.42
2024-03-07T01:46:39.725Z,62.09
2024-03-07T01:48:08.897Z,50.00
2024-03-07T01:49:08.830Z,50.00
2024-03-07T01:50:08.825Z,50.00
2024-03-07T01:51:08.824Z,50.00
2024-03-07T01:52:08.837Z,50.00
2024-03-07T01:53:08.806Z,51.13
2024-03-07T01:54:08.808Z,51.29
2024-03-07T01:55:08.802Z,50.43
2024-03-07T01:56:08.827Z,51.55
2024-03-07T01:57:08.819Z,51.92
2024-03-07T01:58:08.836Z,50.98
2024-03-07T01:59:08.954Z,50.00
2024-03-07T02:00:08.906Z,50.50
2024-03-07T02:01:08.835Z,50.77
2024-03-07T02:02:08.856Z,51.25
2024-03-07T02:03:08.826Z,52.59
2024-03-07T02:04:08.822Z,50.34
2024-03-07T02:05:08.858Z,51.74
2024-03-07T02:06:08.816Z,51.08
2024-03-07T02:07:08.834Z,51.37
2024-03-07T02:08:08.809Z,51.30
2024-03-07T02:09:08.807Z,51.21
2024-03-07T02:10:08.856Z,51.91
2024-03-07T02:11:08.853Z,51.72
2024-03-07T02:12:08.885Z,51.51
2024-03-07T02:13:08.831Z,50.62
2024-03-07T02:14:08.878Z,50.03
2024-03-07T02:15:08.825Z,50.72
2024-03-07T02:16:08.830Z,51.43
2024-03-07T02:17:08.848Z,51.33
2024-03-07T02:18:08.893Z,50.42
2024-03-07T02:19:08.845Z,51.46
2024-03-07T02:20:08.888Z,50.10
2024-03-07T02:21:08.871Z,52.50
2024-03-07T02:22:08.842Z,52.12
2024-03-07T02:23:08.865Z,51.19
2024-03-07T02:24:08.854Z,51.86
2024-03-07T02:25:08.856Z,50.85
2024-03-07T02:26:08.867Z,51.40
2024-03-07T02:27:08.884Z,51.87
2024-03-07T02:28:08.903Z,50.92
2024-03-07T02:29:08.972Z,50.38
2024-03-07T02:30:09.092Z,51.07
2024-03-07T02:31:09.179Z,51.29
2024-03-07T02:32:09.218Z,51.39
2024-03-07T02:33:09.504Z,51.69
2024-03-07T02:34:09.360Z,52.08
2024-03-07T02:35:09.467Z,50.97
2024-03-07T02:36:09.546Z,50.44
2024-03-07T02:37:09.662Z,50.73
2024-03-07T02:38:09.920Z,51.17
2024-03-07T02:39:09.808Z,52.17
2024-03-07T02:40:09.885Z,52.23
2024-03-07T02:41:09.923Z,51.08
2024-03-07T02:42:10.024Z,51.41
2024-03-07T02:43:10.118Z,52.05
2024-03-07T02:44:10.250Z,51.81
2024-03-07T02:45:10.273Z,52.37
2024-03-07T02:46:10.365Z,51.18
2024-03-07T02:47:10.496Z,51.52
2024-03-07T02:48:11.247Z,52.04
2024-03-07T02:49:10.739Z,51.64
2024-03-07T02:50:10.744Z,51.44
2024-03-07T02:51:10.761Z,51.06
2024-03-07T02:52:10.870Z,52.75
2024-03-07T02:53:10.985Z,52.38
2024-03-07T02:54:11.087Z,51.75
2024-03-07T02:55:11.131Z,51.98
2024-03-07T02:56:11.274Z,52.49
2024-03-07T02:57:11.329Z,51.97
2024-03-07T02:58:11.427Z,51.87
2024-03-07T02:59:11.484Z,50.80
2024-03-07T03:00:11.561Z,51.42
2024-03-07T03:01:11.724Z,52.75
2024-03-07T03:02:11.815Z,51.99
2024-03-07T03:03:11.855Z,51.93
2024-03-07T03:04:11.967Z,52.26
2024-03-07T03:05:12.086Z,51.77
2024-03-07T03:06:12.133Z,51.75
2024-03-07T03:07:12.205Z,50.96
2024-03-07T03:08:12.365Z,50.49
2024-03-07T03:09:12.399Z,50.89
2024-03-07T03:10:12.524Z,51.06
2024-03-07T03:11:12.634Z,51.10
2024-03-07T03:12:12.720Z,51.10
2024-03-07T03:13:12.765Z,50.96
2024-03-07T03:14:12.927Z,52.73
2024-03-07T03:15:12.944Z,52.08
2024-03-07T03:16:13.061Z,52.28
2024-03-07T03:17:13.141Z,51.80
2024-03-07T03:18:13.344Z,51.85
2024-03-07T03:19:13.353Z,51.89
2024-03-07T03:20:13.482Z,52.87
2024-03-07T03:21:13.532Z,50.84
2024-03-07T03:22:13.647Z,53.28
2024-03-07T03:23:20.016Z,50.35
2024-03-07T03:24:14.752Z,50.44
2024-03-07T03:25:13.768Z,50.63
2024-03-07T03:26:13.726Z,50.83
2024-03-07T03:27:13.762Z,51.60
2024-03-07T03:28:13.748Z,51.10
2024-03-07T03:29:13.824Z,50.86
2024-03-07T03:30:13.774Z,51.60
2024-03-07T03:31:13.787Z,51.14
2024-03-07T03:32:13.824Z,50.93
2024-03-07T03:33:13.843Z,51.27
2024-03-07T03:34:13.827Z,51.08
2024-03-07T03:35:13.914Z,51.73
2024-03-07T03:36:13.985Z,51.23
2024-03-07T03:37:14.069Z,52.26
2024-03-07T03:38:14.229Z,51.35
2024-03-07T03:39:14.537Z,51.11
2024-03-07T03:40:14.316Z,51.21
2024-03-07T03:41:14.367Z,52.25
2024-03-07T03:42:14.392Z,50.90
2024-03-07T03:43:14.446Z,51.65
2024-03-07T03:44:14.518Z,50.79
2024-03-07T03:45:15.509Z,51.01
2024-03-07T03:46:14.565Z,52.02
2024-03-07T03:47:14.623Z,51.42
2024-03-07T03:48:14.904Z,51.89
2024-03-07T03:49:14.687Z,50.69
2024-03-07T03:50:14.740Z,51.22
2024-03-07T03:51:14.752Z,51.17
2024-03-07T03:52:14.848Z,50.55
2024-03-07T03:53:14.961Z,50.44
2024-03-07T03:54:15.019Z,50.38
2024-03-07T03:55:15.122Z,50.24
2024-03-07T03:56:15.249Z,50.00
2024-03-07T03:57:15.330Z,51.53
2024-03-07T03:58:15.430Z,51.72
2024-03-07T03:59:15.644Z,51.36
2024-03-07T04:00:15.686Z,51.91
2024-03-07T04:01:16.016Z,52.62
2024-03-07T04:02:15.879Z,51.10
2024-03-07T04:03:15.957Z,51.57
2024-03-07T04:04:16.039Z,50.99
2024-03-07T04:05:16.160Z,50.91
2024-03-07T04:06:16.232Z,50.37
2024-03-07T04:07:16.310Z,50.00
2024-03-07T04:08:16.505Z,50.24
2024-03-07T04:09:16.514Z,50.34
2024-03-07T04:10:16.614Z,51.00
2024-03-07T04:11:16.769Z,51.28
2024-03-07T04:12:16.876Z,50.35
2024-03-07T04:13:16.895Z,50.74
2024-03-07T04:14:17.047Z,52.47
2024-03-07T04:15:17.092Z,51.37
2024-03-07T04:16:17.195Z,50.42
2024-03-07T04:17:17.346Z,51.30
2024-03-07T04:18:17.578Z,50.43
2024-03-07T04:19:17.534Z,52.12
2024-03-07T04:20:17.644Z,50.52
2024-03-07T04:21:17.735Z,50.00
2024-03-07T04:22:17.818Z,51.95
2024-03-07T04:23:17.952Z,50.42
2024-03-07T04:24:18.021Z,50.96
2024-03-07T04:25:18.148Z,51.14
2024-03-07T04:26:18.244Z,51.57
2024-03-07T04:27:18.346Z,52.14
2024-03-07T04:28:18.422Z,51.07
2024-03-07T04:29:18.562Z,51.78
2024-03-07T04:30:25.796Z,50.00
2024-03-07T04:31:33.509Z,50.00
2024-03-07T04:32:33.586Z,50.00
2024-03-07T04:33:33.678Z,50.00
2024-03-07T04:34:33.507Z,50.00
2024-03-07T04:35:33.529Z,50.00
2024-03-07T04:36:33.519Z,50.16
2024-03-07T04:37:33.532Z,50.57
2024-03-07T04:38:33.576Z,51.13
2024-03-07T04:39:33.563Z,50.62
2024-03-07T04:40:33.505Z,51.61
2024-03-07T04:41:33.617Z,51.60
2024-03-07T04:42:33.555Z,51.78
2024-03-07T04:43:33.542Z,50.01
2024-03-07T04:44:33.610Z,51.46
2024-03-07T04:45:33.557Z,50.00
2024-03-07T04:46:33.552Z,51.92
2024-03-07T04:47:33.674Z,52.56
2024-03-07T04:48:33.669Z,52.24
2024-03-07T04:49:33.556Z,52.66
2024-03-07T04:50:33.618Z,52.26
2024-03-07T04:51:33.556Z,53.00
2024-03-07T04:52:33.564Z,53.92
2024-03-07T04:53:33.586Z,53.69
2024-03-07T04:54:33.556Z,53.19
2024-03-07T04:55:33.543Z,54.46
2024-03-07T04:56:33.596Z,54.16
2024-03-07T04:57:33.544Z,55.01
2024-03-07T04:58:33.550Z,55.50
2024-03-07T04:59:33.634Z,55.65
2024-03-07T05:00:33.769Z,56.03
2024-03-07T05:01:33.827Z,57.30
2024-03-07T05:02:33.921Z,56.82
2024-03-07T05:03:34.031Z,57.95
2024-03-07T05:04:34.139Z,56.50
2024-03-07T05:05:34.320Z,57.56
2024-03-07T05:06:34.313Z,56.67
2024-03-07T05:07:34.423Z,58.27
2024-03-07T05:08:34.629Z,56.97
2024-03-07T05:09:34.607Z,58.19
2024-03-07T05:10:34.729Z,58.68
2024-03-07T05:11:34.873Z,58.80
2024-03-07T05:12:34.912Z,58.62
2024-03-07T05:13:35.047Z,57.35
2024-03-07T05:14:35.166Z,58.23
2024-03-07T05:15:37.087Z,58.51
2024-03-07T05:16:35.243Z,58.46
2024-03-07T05:17:35.289Z,59.26
2024-03-07T05:18:35.268Z,59.62
2024-03-07T05:19:35.250Z,58.72
2024-03-07T05:20:35.253Z,56.81
2024-03-07T05:21:35.254Z,56.99
2024-03-07T05:22:35.215Z,59.07
2024-03-07T05:23:35.313Z,57.36
2024-03-07T05:24:35.558Z,59.57
2024-03-07T05:25:35.262Z,58.92
2024-03-07T05:26:35.300Z,57.64
2024-03-07T05:27:35.240Z,57.68
2024-03-07T05:28:35.260Z,56.72
2024-03-07T05:29:35.304Z,57.47
2024-03-07T05:30:35.249Z,57.12
2024-03-07T05:31:35.272Z,58.84
2024-03-07T05:32:35.334Z,57.48
2024-03-07T05:33:35.282Z,56.78
2024-03-07T05:34:35.251Z,57.96
2024-03-07T05:35:35.321Z,57.59
2024-03-07T05:36:35.253Z,57.32
2024-03-07T05:37:35.291Z,57.30
2024-03-07T05:38:35.317Z,57.22
2024-03-07T05:39:35.283Z,57.12
2024-03-07T05:40:35.289Z,57.65
2024-03-07T05:41:35.310Z,57.64
2024-03-07T05:42:35.250Z,56.57
2024-03-07T05:43:35.259Z,56.74
2024-03-07T05:44:35.405Z,56.96
2024-03-07T05:45:35.284Z,55.72
2024-03-07T05:46:35.288Z,56.48
2024-03-07T05:47:35.342Z,56.47
2024-03-07T05:48:35.327Z,55.57
2024-03-07T05:49:35.312Z,55.65
2024-03-07T05:50:35.323Z,56.94
2024-03-07T05:51:35.288Z,56.65
2024-03-07T05:52:35.392Z,56.10
2024-03-07T05:53:35.560Z,56.84
2024-03-07T05:54:35.609Z,55.30
2024-03-07T05:55:35.700Z,55.66
2024-03-07T05:56:35.852Z,55.45
2024-03-07T05:57:35.853Z,56.41
2024-03-07T05:58:35.957Z,55.83
2024-03-07T05:59:36.118Z,54.89
2024-03-07T06:00:58.760Z,55.73
2024-03-07T06:01:36.160Z,56.02
2024-03-07T06:02:36.206Z,57.28
2024-03-07T06:03:36.204Z,58.58
2024-03-07T06:04:36.160Z,59.86
2024-03-07T06:05:36.248Z,61.73
2024-03-07T06:06:36.166Z,62.10
2024-03-07T06:07:36.130Z,60.40
2024-03-07T06:08:36.175Z,59.45
2024-03-07T06:09:36.180Z,59.27
2024-03-07T06:10:36.280Z,58.75
2024-03-07T06:11:36.329Z,57.99
2024-03-07T06:12:36.246Z,56.62
2024-03-07T06:13:36.185Z,58.21
2024-03-07T06:14:36.274Z,56.55
2024-03-07T06:15:36.149Z,56.75
2024-03-07T06:16:36.177Z,55.61
2024-03-07T06:17:36.219Z,55.98
2024-03-07T06:18:36.239Z,53.41
2024-03-07T06:19:36.185Z,54.58
2024-03-07T06:20:36.262Z,54.32
2024-03-07T06:21:36.201Z,55.25
2024-03-07T06:22:36.210Z,53.21
2024-03-07T06:23:36.390Z,53.73
2024-03-07T06:24:36.407Z,53.20
2024-03-07T06:25:36.459Z,51.72
2024-03-07T06:26:36.696Z,53.39
2024-03-07T06:27:36.684Z,52.76
2024-03-07T06:28:36.755Z,52.40
2024-03-07T06:29:36.901Z,52.99
2024-03-07T06:30:36.952Z,52.19
2024-03-07T06:31:37.040Z,51.30
2024-03-07T06:32:37.234Z,53.05
2024-03-07T06:33:37.333Z,53.21
2024-03-07T06:34:37.687Z,51.44
2024-03-07T06:35:37.499Z,51.67
2024-03-07T06:36:37.571Z,52.69
2024-03-07T06:37:37.650Z,51.92
2024-03-07T06:38:37.829Z,51.56
2024-03-07T06:39:38.170Z,50.50
2024-03-07T06:40:37.944Z,50.71
2024-03-07T06:41:38.087Z,50.17
2024-03-07T06:42:38.151Z,51.63
2024-03-07T06:43:38.271Z,50.17
2024-03-07T06:44:38.735Z,50.83
2024-03-07T06:46:00.963Z,51.56
2024-03-07T06:46:38.469Z,51.84
2024-03-07T06:47:38.798Z,52.88
2024-03-07T06:48:38.565Z,54.53
2024-03-07T06:49:38.745Z,57.06
2024-03-07T06:50:39.214Z,58.19
2024-03-07T06:51:38.494Z,58.35
2024-03-07T06:52:40.115Z,58.43
2024-03-07T06:53:38.531Z,58.56
2024-03-07T06:54:39.665Z,58.78
2024-03-07T06:55:38.528Z,60.46
2024-03-07T06:56:38.525Z,62.87
2024-03-07T06:57:38.478Z,64.10
2024-03-07T06:58:38.470Z,66.11
2024-03-07T06:59:38.525Z,68.48
2024-03-07T07:00:39.351Z,69.35
2024-03-07T07:01:38.514Z,74.05
2024-03-07T07:02:38.584Z,77.19
2024-03-07T07:03:38.509Z,78.81
2024-03-07T07:04:38.532Z,80.76
2024-03-07T07:05:38.791Z,82.74
2024-03-07T07:06:38.640Z,85.48
2024-03-07T07:07:38.710Z,88.08
2024-03-07T07:08:38.835Z,90.36
2024-03-07T07:09:38.882Z,92.50
2024-03-07T07:10:39.238Z,95.33
2024-03-07T07:11:39.206Z,96.67
2024-03-07T07:12:39.114Z,99.73
2024-03-07T07:13:39.203Z,101.00
2024-03-07T07:14:39.310Z,103.73
2024-03-07T07:15:39.722Z,105.05
2024-03-07T07:16:39.380Z,106.34
2024-03-07T07:17:39.570Z,107.70
2024-03-07T07:18:39.778Z,108.31
2024-03-07T07:19:39.613Z,109.60
2024-03-07T07:20:39.722Z,110.91
2024-03-07T07:21:39.796Z,111.03
2024-03-07T07:22:39.874Z,112.75
2024-03-07T07:23:40.008Z,114.60
2024-03-07T07:24:39.979Z,113.34
2024-03-07T07:25:40.097Z,114.88
2024-03-07T07:26:40.173Z,115.27
2024-03-07T07:27:40.224Z,115.05
2024-03-07T07:28:40.318Z,115.30
2024-03-07T07:29:40.414Z,115.28
2024-03-07T07:30:41.890Z,115.00
2024-03-07T07:31:40.449Z,115.56
2024-03-07T07:32:40.482Z,112.81
2024-03-07T07:33:40.536Z,113.50
2024-03-07T07:34:40.461Z,112.16
2024-03-07T07:35:40.745Z,112.33
2024-03-07T07:36:40.494Z,112.97
2024-03-07T07:37:40.473Z,113.38
2024-03-07T07:38:40.496Z,112.90
2024-03-07T07:39:40.467Z,113.44
2024-03-07T07:40:40.500Z,112.40
2024-03-07T07:41:40.510Z,113.06
2024-03-07T07:42:40.480Z,115.76
2024-03-07T07:44:40.512Z,121.09
2024-03-07T07:45:40.494Z,124.95
2024-03-07T07:46:40.499Z,127.71
2024-03-07T07:47:40.554Z,130.14
2024-03-07T07:48:40.609Z,133.28
2024-03-07T07:49:40.502Z,138.55
2024-03-07T07:50:40.767Z,140.19
2024-03-07T07:51:40.493Z,144.19
2024-03-07T07:52:40.508Z,145.93
2024-03-07T07:53:40.525Z,150.82
2024-03-07T07:54:40.508Z,154.48
2024-03-07T07:55:40.507Z,159.12
2024-03-07T07:56:40.535Z,164.09
2024-03-07T07:57:40.485Z,168.63
2024-03-07T07:58:40.526Z,171.52
2024-03-07T07:59:40.581Z,177.28
2024-03-07T08:00:40.532Z,179.96
2024-03-07T08:01:40.519Z,184.23
2024-03-07T08:02:40.567Z,187.90
2024-03-07T08:03:40.528Z,192.21
2024-03-07T08:04:40.514Z,198.06
2024-03-07T08:05:40.592Z,199.35
2024-03-07T08:06:40.512Z,200.00
2024-03-07T08:07:40.548Z,200.00
2024-03-07T08:08:40.584Z,200.00
2024-03-07T08:09:40.525Z,199.30
2024-03-07T08:10:42.347Z,199.51
2024-03-07T08:11:40.638Z,200.07
2024-03-07T08:12:40.566Z,200.00
2024-03-07T08:13:40.560Z,199.52
2024-03-07T08:14:40.606Z,200.00
2024-03-07T08:15:40.588Z,199.51
2024-03-07T08:16:40.601Z,199.31
2024-03-07T08:17:40.675Z,199.97
2024-03-07T08:18:40.657Z,199.00
2024-03-07T08:19:40.569Z,200.05
2024-03-07T08:20:41.727Z,200.00
2024-03-07T08:21:40.625Z,199.34
2024-03-07T08:22:40.631Z,199.50
2024-03-07T08:23:40.628Z,199.81
2024-03-07T08:24:40.609Z,200.00
2024-03-07T08:25:40.998Z,199.75
2024-03-07T08:26:40.650Z,199.83
2024-03-07T08:27:40.624Z,200.00
2024-03-07T08:28:40.597Z,199.81
2024-03-07T08:29:40.694Z,199.38
2024-03-07T08:30:40.644Z,200.00
2024-03-07T08:31:40.762Z,200.00
2024-03-07T08:32:40.672Z,199.84
2024-03-07T08:33:40.735Z,200.24
2024-03-07T08:34:41.244Z,199.05
2024-03-07T08:35:40.756Z,195.78
2024-03-07T08:36:41.255Z,191.40
2024-03-07T08:37:40.804Z,185.19
2024-03-07T08:38:40.873Z,177.16
2024-03-07T08:39:40.970Z,170.46
2024-03-07T08:40:41.083Z,161.75
2024-03-07T08:41:41.294Z,153.21
2024-03-07T08:42:41.257Z,148.19
2024-03-07T08:43:41.320Z,142.01
2024-03-07T08:44:41.473Z,135.43
2024-03-07T08:45:41.469Z,129.98
2024-03-07T08:46:41.583Z,122.47
2024-03-07T08:47:41.800Z,117.72
2024-03-07T08:48:41.907Z,113.70
2024-03-07T08:49:41.948Z,109.41
2024-03-07T08:50:42.031Z,107.05
2024-03-07T08:51:42.739Z,104.71
2024-03-07T08:52:42.152Z,103.85
2024-03-07T08:53:42.275Z,102.33
2024-03-07T08:54:42.344Z,103.22
2024-03-07T08:55:42.431Z,102.82
2024-03-07T08:56:42.599Z,102.78
2024-03-07T08:57:42.641Z,103.55
2024-03-07T08:58:42.729Z,103.61
2024-03-07T08:59:42.845Z,102.70
2024-03-07T09:00:42.942Z,101.31
2024-03-07T09:01:43.086Z,101.40
2024-03-07T09:02:43.194Z,100.90
2024-03-07T09:03:43.194Z,102.17
2024-03-07T09:04:43.307Z,101.82
2024-03-07T09:05:43.703Z,102.30
2024-03-07T09:06:43.496Z,102.46
2024-03-07T09:07:43.577Z,101.99
2024-03-07T09:08:43.710Z,101.74
2024-03-07T09:09:43.788Z,99.47
2024-03-07T09:10:44.119Z,96.23
2024-03-07T09:11:44.016Z,91.52
2024-03-07T09:12:44.047Z,88.40
2024-03-07T09:13:44.114Z,85.94
2024-03-07T09:14:47.176Z,84.20
2024-03-07T09:15:44.229Z,84.60
2024-03-07T09:16:44.215Z,82.31
2024-03-07T09:17:44.269Z,80.94
2024-03-07T09:18:44.304Z,79.65
2024-03-07T09:19:44.225Z,79.36
2024-03-07T09:20:44.263Z,79.87
2024-03-07T09:21:44.219Z,80.02
2024-03-07T09:22:44.238Z,81.66
2024-03-07T09:23:44.288Z,83.01
2024-03-07T09:24:44.275Z,83.08
2024-03-07T09:25:44.274Z,83.35
2024-03-07T09:26:44.396Z,83.56
2024-03-07T09:27:44.261Z,83.35
2024-03-07T09:28:44.221Z,83.76
2024-03-07T09:29:44.289Z,84.82
2024-03-07T09:30:44.279Z,86.86
2024-03-07T09:31:44.765Z,88.23
2024-03-07T09:32:44.766Z,89.01
2024-03-07T09:33:44.343Z,91.44
2024-03-07T09:34:44.368Z,90.82
2024-03-07T09:35:44.317Z,90.18
2024-03-07T09:36:44.826Z,86.33
2024-03-07T09:37:44.794Z,83.24
2024-03-07T09:38:44.342Z,79.72
2024-03-07T09:39:44.348Z,74.82
2024-03-07T09:40:44.332Z,73.31
2024-03-07T09:41:44.812Z,68.28
2024-03-07T09:42:44.306Z,63.24
2024-03-07T09:43:44.270Z,56.85
2024-03-07T09:44:44.322Z,55.31
2024-03-07T09:45:46.697Z,50.02
2024-03-07T09:46:44.760Z,45.66
2024-03-07T09:47:44.380Z,40.69
2024-03-07T09:48:44.353Z,39.48
2024-03-07T09:49:44.281Z,35.09
2024-03-07T09:50:44.365Z,27.27
2024-03-07T09:51:44.806Z,35.34
2024-03-07T09:52:44.298Z,41.34
2024-03-07T09:53:44.307Z,48.60
2024-03-07T09:54:44.329Z,50.77
2024-03-07T09:55:44.331Z,51.05
2024-03-07T09:56:44.840Z,51.56
2024-03-07T09:57:44.346Z,52.87
2024-03-07T09:58:44.342Z,52.55
2024-03-07T09:59:44.371Z,49.90
2024-03-07T10:00:44.302Z,50.07
2024-03-07T10:01:44.753Z,50.00
2024-03-07T10:02:45.330Z,50.00
2024-03-07T10:03:44.398Z,50.00
2024-03-07T10:04:44.301Z,50.00
2024-03-07T10:05:44.422Z,50.20
2024-03-07T10:06:44.802Z,50.56
2024-03-07T10:07:44.558Z,50.21
2024-03-07T10:08:44.705Z,50.74
2024-03-07T10:09:44.772Z,50.00
2024-03-07T10:10:44.931Z,51.53
2024-03-07T10:11:47.190Z,52.50
2024-03-07T10:12:44.995Z,54.27
2024-03-07T10:13:45.052Z,56.62
2024-03-07T10:14:45.112Z,60.63
2024-03-07T10:15:45.129Z,61.60
2024-03-07T10:16:45.303Z,62.39
2024-03-07T10:17:47.202Z,63.62
2024-03-07T10:18:45.516Z,63.24
2024-03-07T10:19:45.429Z,64.02
2024-03-07T10:20:45.595Z,64.17
2024-03-07T10:21:45.541Z,61.98
2024-03-07T10:22:45.581Z,59.89
2024-03-07T10:23:45.682Z,62.13
2024-03-07T10:24:45.686Z,60.49
2024-03-07T10:25:45.686Z,56.90
2024-03-07T10:26:45.869Z,55.99
2024-03-07T10:27:45.791Z,56.15
2024-03-07T10:28:45.822Z,56.54
2024-03-07T10:29:45.893Z,57.08
2024-03-07T10:30:45.972Z,58.28
2024-03-07T10:31:53.533Z,58.90
2024-03-07T10:32:47.081Z,59.00
2024-03-07T10:33:46.148Z,59.12
2024-03-07T10:34:46.038Z,60.72
2024-03-07T10:35:46.067Z,59.83
2024-03-07T10:36:46.080Z,62.58
2024-03-07T10:37:46.037Z,60.67
2024-03-07T10:38:46.075Z,57.70
2024-03-07T10:39:46.038Z,60.82
2024-03-07T10:40:46.073Z,60.15
2024-03-07T10:41:46.370Z,57.45
2024-03-07T10:42:46.029Z,56.37
2024-03-07T10:43:46.082Z,54.80
2024-03-07T10:44:46.134Z,54.01
2024-03-07T10:45:46.061Z,51.59
2024-03-07T10:46:46.353Z,54.28
2024-03-07T10:47:46.169Z,55.71
2024-03-07T10:48:46.159Z,57.06
2024-03-07T10:49:46.149Z,54.18
2024-03-07T10:50:46.260Z,54.84
2024-03-07T10:51:46.221Z,50.54
2024-03-07T10:52:46.260Z,50.59
2024-03-07T10:53:46.337Z,49.73
2024-03-07T10:54:49.052Z,49.92
2024-03-07T10:55:46.367Z,48.55
2024-03-07T10:56:46.388Z,44.72
2024-03-07T10:57:47.321Z,44.16
2024-03-07T10:58:46.339Z,41.94
2024-03-07T10:59:46.493Z,40.33
2024-03-07T11:00:46.408Z,47.20
2024-03-07T11:01:46.829Z,50.70
2024-03-07T11:02:46.376Z,51.48
2024-03-07T11:03:46.374Z,54.78
2024-03-07T11:04:46.390Z,56.95
2024-03-07T11:05:46.384Z,57.69
2024-03-07T11:06:46.400Z,60.98
2024-03-07T11:07:46.400Z,61.89
2024-03-07T11:08:46.460Z,61.61
2024-03-07T11:09:46.413Z,63.60
2024-03-07T11:10:46.441Z,67.12
2024-03-07T11:11:46.908Z,67.53
2024-03-07T11:12:46.395Z,70.72
2024-03-07T11:13:46.441Z,73.34
2024-03-07T11:14:46.421Z,76.11
2024-03-07T11:15:46.423Z,83.99
2024-03-07T11:16:46.829Z,86.26
2024-03-07T11:17:46.431Z,87.25
2024-03-07T11:18:46.408Z,89.54
2024-03-07T11:19:46.447Z,90.72
2024-03-07T11:20:46.474Z,92.43
2024-03-07T11:21:46.454Z,94.42
2024-03-07T11:22:46.537Z,96.01
2024-03-07T11:23:46.471Z,96.60
2024-03-07T11:24:46.726Z,100.81
2024-03-07T11:25:46.547Z,102.46
2024-03-07T11:26:46.759Z,104.00
2024-03-07T11:27:46.707Z,105.50
2024-03-07T11:28:46.759Z,107.61
2024-03-07T11:29:46.838Z,108.58
2024-03-07T11:30:46.887Z,109.97
2024-03-07T11:31:47.363Z,110.62
2024-03-07T11:32:48.129Z,112.39
2024-03-07T11:33:47.287Z,113.23
2024-03-07T11:34:47.186Z,113.92
2024-03-07T11:35:47.261Z,114.95
2024-03-07T11:36:47.333Z,114.35
2024-03-07T11:37:47.826Z,117.07
2024-03-07T11:38:47.488Z,125.40
2024-03-07T11:39:47.573Z,133.94
2024-03-07T11:40:47.631Z,140.62
2024-03-07T11:41:47.859Z,145.50
2024-03-07T11:42:47.766Z,150.14
2024-03-07T11:43:47.935Z,150.98
2024-03-07T11:44:47.959Z,153.22
2024-03-07T11:45:48.610Z,154.89
2024-03-07T11:46:48.359Z,155.98
2024-03-07T11:47:48.236Z,157.55
2024-03-07T11:48:48.267Z,157.61
2024-03-07T11:49:48.337Z,159.43
2024-03-07T11:50:48.462Z,159.89
2024-03-07T11:51:48.843Z,160.21
2024-03-07T11:52:48.503Z,158.81
2024-03-07T11:53:48.611Z,160.95
2024-03-07T11:54:48.639Z,160.43
2024-03-07T11:55:48.690Z,161.90
2024-03-07T11:56:48.924Z,161.56
2024-03-07T11:57:48.877Z,161.21
2024-03-07T11:58:48.956Z,161.51
2024-03-07T11:59:49.015Z,162.92
2024-03-07T12:00:49.108Z,163.30
2024-03-07T12:01:49.452Z,164.48
2024-03-07T12:02:49.246Z,164.54
2024-03-07T12:03:49.308Z,165.26
2024-03-07T12:04:49.398Z,165.48
2024-03-07T12:05:49.446Z,166.39
2024-03-07T12:06:49.488Z,167.61
2024-03-07T12:07:49.839Z,166.27
2024-03-07T12:08:49.672Z,167.04
2024-03-07T12:09:49.694Z,167.47
2024-03-07T12:10:50.053Z,167.26
2024-03-07T12:11:49.892Z,167.76
2024-03-07T12:12:49.927Z,166.30
2024-03-07T12:13:49.993Z,166.59
2024-03-07T12:14:50.059Z,166.22
2024-03-07T12:15:50.094Z,165.84
2024-03-07T12:16:50.153Z,166.75
2024-03-07T12:17:50.530Z,166.71
2024-03-07T12:18:50.410Z,165.60
2024-03-07T12:19:50.329Z,163.62
2024-03-07T12:20:50.476Z,164.30
2024-03-07T12:21:50.551Z,164.12
2024-03-07T12:22:50.876Z,163.89
2024-03-07T12:23:50.689Z,164.81
2024-03-07T12:24:50.753Z,161.10
2024-03-07T12:25:50.837Z,160.65
2024-03-07T12:26:50.939Z,160.65
2024-03-07T12:27:51.365Z,158.50
2024-03-07T12:28:51.060Z,158.92
2024-03-07T12:29:51.188Z,159.03
2024-03-07T12:30:51.436Z,158.81
2024-03-07T12:31:51.296Z,159.29
2024-03-07T12:32:51.491Z,159.02
2024-03-07T12:33:51.462Z,158.19
2024-03-07T12:34:51.469Z,158.12
2024-03-07T12:35:51.595Z,157.12
2024-03-07T12:36:51.584Z,157.55
2024-03-07T12:37:51.653Z,157.32
2024-03-07T12:38:51.767Z,156.13
2024-03-07T12:39:51.792Z,155.96
2024-03-07T12:40:51.891Z,156.71
2024-03-07T12:41:52.053Z,157.07
2024-03-07T12:42:52.032Z,157.08
2024-03-07T12:43:52.073Z,156.21
2024-03-07T12:44:52.249Z,156.36
2024-03-07T12:45:52.214Z,156.29
2024-03-07T12:46:52.320Z,155.45
2024-03-07T12:47:52.446Z,156.48
2024-03-07T12:48:52.591Z,155.53
2024-03-07T12:49:52.488Z,156.14